Vn Rebel _ — ILBR — position and weather

sailwx.info

Track history (hours):
 
Tides and Currents Weather Stations Pressure Air Temp Water Temp Dewpoint Dewpoint Depression Visibility Wind Speed Wind Dir Waves Ship Positions

Vn Rebel _

Last reported at 2015-May-21 16:20 UTC. Time now 2015-May-23 01:16 UTC.
Position N 43°07' E 005°55'.

Length 45 m; draft 2.4 m.

MMSI: 247010300.

Date/timePositionNaut miles runAvg speedWind from/ knotsBaromVisibWave heightAir tempDewpointWater temp
2015-May-21 16:20N 43°07' E 005°55'0 0.0
2015-May-20 18:22N 43°07' E 005°55'1 1.5
2015-May-20 17:33N 43°06' E 005°55'8 7.6
2015-May-20 16:32N 43°02' E 006°04'8 1.9
2015-May-20 12:28N 43°03' E 006°14'12 1.2
2015-May-20 02:33N 43°04' E 005°59'4 3.5
2015-May-20 01:33N 43°07' E 005°55'0 0.0
2015-May-20 00:30N 43°07' E 005°55'0 0.0
2015-May-19 23:30N 43°07' E 005°55'0 0.0
2015-May-19 22:30N 43°07' E 005°55'0 0.0
2015-May-19 21:30N 43°07' E 005°55'  
2015-May-13 06:33N 43°06' E 005°55'4 4.1
2015-May-13 05:33N 43°04' E 006°00'10 9.3
2015-May-13 04:26N 42°59' E 006°12'3 1.3
2015-May-13 02:20N 43°01' E 006°14'0 0.0
2015-May-12 17:14N 43°01' E 006°14'0 0.0
2015-May-12 15:32N 43°01' E 006°14'0 0.0
2015-May-12 14:32N 43°01' E 006°14'0 0.0
2015-May-12 13:32N 43°01' E 006°14'0 0.0
2015-May-12 12:29N 43°01' E 006°14'0 0.0
2015-May-12 11:32N 43°01' E 006°14'0 0.0
2015-May-12 10:23N 43°01' E 006°14'0 0.0
2015-May-12 08:17N 43°01' E 006°14'0 0.0
2015-May-12 07:32N 43°01' E 006°14'0 0.0
2015-May-12 03:26N 43°01' E 006°14'0 0.0
2015-May-12 02:32N 43°01' E 006°14'0 0.0
2015-May-12 00:33N 43°01' E 006°14'0 0.0
2015-May-11 23:32N 43°01' E 006°14'0 0.0
2015-May-11 22:17N 43°01' E 006°14'0 0.6
2015-May-11 21:32N 43°02' E 006°14'9 8.9
2015-May-11 20:29N 43°05' E 006°26'12 3.9
2015-May-11 17:19N 43°01' E 006°10'7 9.1
2015-May-11 16:33N 43°03' E 006°01'  
Track history (hours):
 
Tides and Currents Weather Stations Pressure Air Temp Water Temp Dewpoint Dewpoint Depression Visibility Wind Speed Wind Dir Waves Ship Positions

Vn Rebel _

Last reported at 2015-May-21 16:20 UTC. Time now 2015-May-23 01:16 UTC.
Position N 43°07' E 005°55'.

Length 45 m; draft 2.4 m.

MMSI: 247010300.

Date/timePositionNaut miles runAvg speedWind from/ knotsBaromVisibWave heightAir tempDewpointWater temp
2015-May-21 16:20N 43°07' E 005°55'0 0.0
2015-May-20 18:22N 43°07' E 005°55'1 1.5
2015-May-20 17:33N 43°06' E 005°55'8 7.6
2015-May-20 16:32N 43°02' E 006°04'8 1.9
2015-May-20 12:28N 43°03' E 006°14'12 1.2
2015-May-20 02:33N 43°04' E 005°59'4 3.5
2015-May-20 01:33N 43°07' E 005°55'0 0.0
2015-May-20 00:30N 43°07' E 005°55'0 0.0
2015-May-19 23:30N 43°07' E 005°55'0 0.0
2015-May-19 22:30N 43°07' E 005°55'0 0.0
2015-May-19 21:30N 43°07' E 005°55'  
2015-May-13 06:33N 43°06' E 005°55'4 4.1
2015-May-13 05:33N 43°04' E 006°00'10 9.3
2015-May-13 04:26N 42°59' E 006°12'3 1.3
2015-May-13 02:20N 43°01' E 006°14'0 0.0
2015-May-12 17:14N 43°01' E 006°14'0 0.0
2015-May-12 15:32N 43°01' E 006°14'0 0.0
2015-May-12 14:32N 43°01' E 006°14'0 0.0
2015-May-12 13:32N 43°01' E 006°14'0 0.0
2015-May-12 12:29N 43°01' E 006°14'0 0.0
2015-May-12 11:32N 43°01' E 006°14'0 0.0
2015-May-12 10:23N 43°01' E 006°14'0 0.0
2015-May-12 08:17N 43°01' E 006°14'0 0.0
2015-May-12 07:32N 43°01' E 006°14'0 0.0
2015-May-12 03:26N 43°01' E 006°14'0 0.0
2015-May-12 02:32N 43°01' E 006°14'0 0.0
2015-May-12 00:33N 43°01' E 006°14'0 0.0
2015-May-11 23:32N 43°01' E 006°14'0 0.0
2015-May-11 22:17N 43°01' E 006°14'0 0.6
2015-May-11 21:32N 43°02' E 006°14'9 8.9
2015-May-11 20:29N 43°05' E 006°26'12 3.9
2015-May-11 17:19N 43°01' E 006°10'7 9.1
2015-May-11 16:33N 43°03' E 006°01'  

Dump ship's entire track history